sensor_id;sensor_type;location;lat;lon;timestamp;pressure;altitude;pressure_sealevel;temperature;humidity
6506;BME280;3286;49.858;8.768;2023-05-25T00:01:24;99842.16;;;11.09;50.98
6506;BME280;3286;49.858;8.768;2023-05-25T00:03:51;99832.84;;;11.05;50.92
6506;BME280;3286;49.858;8.768;2023-05-25T00:06:19;99827.41;;;11.56;49.95
6506;BME280;3286;49.858;8.768;2023-05-25T00:08:46;99835.03;;;11.59;49.62
6506;BME280;3286;49.858;8.768;2023-05-25T00:11:13;99826.03;;;11.22;50.84
6506;BME280;3286;49.858;8.768;2023-05-25T00:13:45;99830.31;;;11.43;50.14
6506;BME280;3286;49.858;8.768;2023-05-25T00:16:11;99814.56;;;11.71;49.46
6506;BME280;3286;49.858;8.768;2023-05-25T00:18:38;99825.00;;;10.94;51.14
6506;BME280;3286;49.858;8.768;2023-05-25T00:21:04;99822.09;;;11.07;51.18
6506;BME280;3286;49.858;8.768;2023-05-25T00:23:31;99818.34;;;11.29;50.28
6506;BME280;3286;49.858;8.768;2023-05-25T00:25:59;99812.66;;;11.24;50.80
6506;BME280;3286;49.858;8.768;2023-05-25T00:28:26;99819.06;;;11.01;51.24
6506;BME280;3286;49.858;8.768;2023-05-25T00:30:54;99821.28;;;11.06;51.70
6506;BME280;3286;49.858;8.768;2023-05-25T00:33:21;99811.97;;;11.32;51.09
6506;BME280;3286;49.858;8.768;2023-05-25T00:35:47;99815.03;;;11.07;51.45
6506;BME280;3286;49.858;8.768;2023-05-25T00:38:15;99815.84;;;11.37;50.70
6506;BME280;3286;49.858;8.768;2023-05-25T00:40:43;99820.88;;;11.30;50.57
6506;BME280;3286;49.858;8.768;2023-05-25T00:43:10;99815.84;;;11.08;51.88
6506;BME280;3286;49.858;8.768;2023-05-25T00:45:37;99817.66;;;11.37;50.95
6506;BME280;3286;49.858;8.768;2023-05-25T00:48:05;99818.75;;;11.54;50.61
6506;BME280;3286;49.858;8.768;2023-05-25T00:50:36;99813.88;;;11.59;50.71
6506;BME280;3286;49.858;8.768;2023-05-25T00:53:05;99825.31;;;11.00;51.71
6506;BME280;3286;49.858;8.768;2023-05-25T00:55:35;99819.56;;;11.64;50.70
6506;BME280;3286;49.858;8.768;2023-05-25T00:58:03;99823.78;;;11.18;51.41
6506;BME280;3286;49.858;8.768;2023-05-25T01:00:31;99831.31;;;11.22;52.23
6506;BME280;3286;49.858;8.768;2023-05-25T01:03:05;99829.09;;;11.18;52.74
6506;BME280;3286;49.858;8.768;2023-05-25T01:05:37;99820.84;;;11.50;51.98
6506;BME280;3286;49.858;8.768;2023-05-25T01:08:08;99826.28;;;11.19;53.35
6506;BME280;3286;49.858;8.768;2023-05-25T01:10:37;99824.28;;;11.90;51.19
6506;BME280;3286;49.858;8.768;2023-05-25T01:13:06;99833.94;;;11.32;52.79
6506;BME280;3286;49.858;8.768;2023-05-25T01:15:34;99832.44;;;11.29;53.06
6506;BME280;3286;49.858;8.768;2023-05-25T01:18:02;99831.97;;;10.95;53.90
6506;BME280;3286;49.858;8.768;2023-05-25T01:20:30;99837.31;;;11.24;53.38
6506;BME280;3286;49.858;8.768;2023-05-25T01:23:00;99828.94;;;11.29;52.93
6506;BME280;3286;49.858;8.768;2023-05-25T01:25:33;99826.13;;;11.50;52.70
6506;BME280;3286;49.858;8.768;2023-05-25T01:28:04;99829.38;;;11.14;53.08
6506;BME280;3286;49.858;8.768;2023-05-25T01:30:32;99832.66;;;10.77;53.95
6506;BME280;3286;49.858;8.768;2023-05-25T01:33:01;99830.19;;;11.25;53.48
6506;BME280;3286;49.858;8.768;2023-05-25T01:35:28;99837.97;;;11.07;53.33
6506;BME280;3286;49.858;8.768;2023-05-25T01:37:58;99838.28;;;11.13;53.14
6506;BME280;3286;49.858;8.768;2023-05-25T01:40:26;99835.31;;;10.87;53.66
6506;BME280;3286;49.858;8.768;2023-05-25T01:42:52;99840.44;;;10.79;53.88
6506;BME280;3286;49.858;8.768;2023-05-25T01:45:19;99845.50;;;11.31;53.03
6506;BME280;3286;49.858;8.768;2023-05-25T01:48:06;99843.13;;;11.57;52.43
6506;BME280;3286;49.858;8.768;2023-05-25T01:50:41;99852.47;;;11.42;52.33
6506;BME280;3286;49.858;8.768;2023-05-25T01:53:16;99850.25;;;11.18;53.17
6506;BME280;3286;49.858;8.768;2023-05-25T01:55:46;99857.47;;;11.15;52.96
6506;BME280;3286;49.858;8.768;2023-05-25T01:58:18;99856.78;;;11.23;52.43
6506;BME280;3286;49.858;8.768;2023-05-25T02:00:46;99843.56;;;11.13;52.56
6506;BME280;3286;49.858;8.768;2023-05-25T02:03:14;99848.09;;;10.72;53.49
6506;BME280;3286;49.858;8.768;2023-05-25T02:05:42;99852.78;;;10.68;53.71
6506;BME280;3286;49.858;8.768;2023-05-25T02:08:09;99860.25;;;11.04;52.74
6506;BME280;3286;49.858;8.768;2023-05-25T02:10:37;99859.81;;;10.48;53.86
6506;BME280;3286;49.858;8.768;2023-05-25T02:13:03;99855.59;;;10.67;53.70
6506;BME280;3286;49.858;8.768;2023-05-25T02:15:31;99857.78;;;10.31;55.09
6506;BME280;3286;49.858;8.768;2023-05-25T02:17:58;99853.97;;;10.45;54.34
6506;BME280;3286;49.858;8.768;2023-05-25T02:20:25;99847.00;;;10.84;52.98
6506;BME280;3286;49.858;8.768;2023-05-25T02:22:53;99849.41;;;10.47;54.55
6506;BME280;3286;49.858;8.768;2023-05-25T02:25:19;99841.97;;;10.09;56.17
6506;BME280;3286;49.858;8.768;2023-05-25T02:27:48;99830.59;;;10.40;54.71
6506;BME280;3286;49.858;8.768;2023-05-25T02:30:14;99841.25;;;10.28;54.29
6506;BME280;3286;49.858;8.768;2023-05-25T02:32:41;99835.28;;;10.36;53.62
6506;BME280;3286;49.858;8.768;2023-05-25T02:35:08;99836.72;;;10.40;53.85
6506;BME280;3286;49.858;8.768;2023-05-25T02:37:35;99829.06;;;10.06;55.14
6506;BME280;3286;49.858;8.768;2023-05-25T02:40:03;99842.75;;;10.31;54.04
6506;BME280;3286;49.858;8.768;2023-05-25T02:42:30;99834.22;;;10.18;54.66
6506;BME280;3286;49.858;8.768;2023-05-25T02:44:58;99835.28;;;10.36;54.45
6506;BME280;3286;49.858;8.768;2023-05-25T02:47:25;99838.50;;;10.09;55.62
6506;BME280;3286;49.858;8.768;2023-05-25T02:49:51;99833.59;;;10.25;54.32
6506;BME280;3286;49.858;8.768;2023-05-25T02:52:18;99837.22;;;10.34;54.17
6506;BME280;3286;49.858;8.768;2023-05-25T02:54:45;99844.16;;;10.25;54.85
6506;BME280;3286;49.858;8.768;2023-05-25T02:57:12;99834.97;;;9.98;55.22
6506;BME280;3286;49.858;8.768;2023-05-25T02:59:38;99838.75;;;10.37;53.95
6506;BME280;3286;49.858;8.768;2023-05-25T03:02:06;99838.44;;;9.99;55.19
6506;BME280;3286;49.858;8.768;2023-05-25T03:04:33;99834.63;;;10.44;53.39
6506;BME280;3286;49.858;8.768;2023-05-25T03:07:01;99848.13;;;10.41;54.38
6506;BME280;3286;49.858;8.768;2023-05-25T03:09:28;99855.84;;;9.80;55.24
6506;BME280;3286;49.858;8.768;2023-05-25T03:11:55;99841.75;;;9.91;54.98
6506;BME280;3286;49.858;8.768;2023-05-25T03:14:21;99844.44;;;10.32;53.98
6506;BME280;3286;49.858;8.768;2023-05-25T03:16:48;99847.38;;;10.08;54.82
6506;BME280;3286;49.858;8.768;2023-05-25T03:19:16;99851.75;;;10.19;54.61
6506;BME280;3286;49.858;8.768;2023-05-25T03:21:44;99847.66;;;10.36;53.97
6506;BME280;3286;49.858;8.768;2023-05-25T03:24:11;99846.44;;;10.40;53.95
6506;BME280;3286;49.858;8.768;2023-05-25T03:26:38;99846.28;;;10.10;54.97
6506;BME280;3286;49.858;8.768;2023-05-25T03:29:04;99855.00;;;10.01;55.17
6506;BME280;3286;49.858;8.768;2023-05-25T03:31:32;99862.00;;;10.12;55.40
6506;BME280;3286;49.858;8.768;2023-05-25T03:33:58;99854.34;;;9.66;56.40
6506;BME280;3286;49.858;8.768;2023-05-25T03:36:26;99861.38;;;9.98;56.03
6506;BME280;3286;49.858;8.768;2023-05-25T03:38:55;99868.00;;;9.93;56.38
6506;BME280;3286;49.858;8.768;2023-05-25T03:41:21;99857.47;;;10.24;56.11
6506;BME280;3286;49.858;8.768;2023-05-25T03:43:48;99862.25;;;10.09;56.48
6506;BME280;3286;49.858;8.768;2023-05-25T03:46:14;99859.63;;;9.88;56.59
6506;BME280;3286;49.858;8.768;2023-05-25T03:48:41;99865.28;;;10.25;54.98
6506;BME280;3286;49.858;8.768;2023-05-25T03:51:08;99857.22;;;10.06;55.47
6506;BME280;3286;49.858;8.768;2023-05-25T03:53:36;99862.84;;;10.12;56.08
6506;BME280;3286;49.858;8.768;2023-05-25T03:56:02;99858.44;;;10.23;55.24
6506;BME280;3286;49.858;8.768;2023-05-25T03:58:29;99863.22;;;10.08;55.79
6506;BME280;3286;49.858;8.768;2023-05-25T04:00:56;99864.03;;;10.29;55.38
6506;BME280;3286;49.858;8.768;2023-05-25T04:03:22;99865.06;;;9.86;56.01
6506;BME280;3286;49.858;8.768;2023-05-25T04:05:49;99871.34;;;9.95;55.28
6506;BME280;3286;49.858;8.768;2023-05-25T04:08:16;99875.97;;;9.81;56.49
6506;BME280;3286;49.858;8.768;2023-05-25T04:10:45;99879.94;;;10.18;55.73
6506;BME280;3286;49.858;8.768;2023-05-25T04:13:12;99880.09;;;9.95;56.53
6506;BME280;3286;49.858;8.768;2023-05-25T04:15:39;99883.38;;;9.88;56.51
6506;BME280;3286;49.858;8.768;2023-05-25T04:18:05;99890.22;;;10.11;56.27
6506;BME280;3286;49.858;8.768;2023-05-25T04:20:32;99890.13;;;10.23;56.64
6506;BME280;3286;49.858;8.768;2023-05-25T04:22:59;99896.97;;;10.35;55.31
6506;BME280;3286;49.858;8.768;2023-05-25T04:25:25;99894.06;;;10.28;55.95
6506;BME280;3286;49.858;8.768;2023-05-25T04:27:53;99899.78;;;10.34;55.84
6506;BME280;3286;49.858;8.768;2023-05-25T04:30:21;99896.72;;;10.38;55.33
6506;BME280;3286;49.858;8.768;2023-05-25T04:32:47;99905.31;;;10.31;56.01
6506;BME280;3286;49.858;8.768;2023-05-25T04:35:15;99898.75;;;10.46;56.24
6506;BME280;3286;49.858;8.768;2023-05-25T04:37:45;99900.88;;;10.62;55.24
6506;BME280;3286;49.858;8.768;2023-05-25T04:40:12;99899.28;;;10.81;55.80
6506;BME280;3286;49.858;8.768;2023-05-25T04:42:39;99899.38;;;10.69;55.38
6506;BME280;3286;49.858;8.768;2023-05-25T04:45:08;99901.41;;;10.97;55.18
6506;BME280;3286;49.858;8.768;2023-05-25T04:47:35;99908.09;;;10.91;55.85
6506;BME280;3286;49.858;8.768;2023-05-25T04:50:06;99910.63;;;11.12;59.53
6506;BME280;3286;49.858;8.768;2023-05-25T04:52:33;99911.25;;;10.75;61.97
6506;BME280;3286;49.858;8.768;2023-05-25T04:54:59;99909.03;;;10.49;59.96
6506;BME280;3286;49.858;8.768;2023-05-25T04:57:27;99911.34;;;10.73;62.23
6506;BME280;3286;49.858;8.768;2023-05-25T04:59:55;99908.50;;;10.24;61.87
6506;BME280;3286;49.858;8.768;2023-05-25T05:02:23;99924.44;;;10.44;60.68
6506;BME280;3286;49.858;8.768;2023-05-25T05:04:49;99919.94;;;10.56;59.67
6506;BME280;3286;49.858;8.768;2023-05-25T05:07:18;99923.00;;;10.61;59.92
6506;BME280;3286;49.858;8.768;2023-05-25T05:09:44;99926.06;;;10.66;60.45
6506;BME280;3286;49.858;8.768;2023-05-25T05:12:11;99932.41;;;10.85;60.95
6506;BME280;3286;49.858;8.768;2023-05-25T05:14:37;99929.34;;;10.49;60.43
6506;BME280;3286;49.858;8.768;2023-05-25T05:17:04;99931.28;;;10.87;60.36
6506;BME280;3286;49.858;8.768;2023-05-25T05:19:32;99929.00;;;10.63;60.43
6506;BME280;3286;49.858;8.768;2023-05-25T05:21:59;99939.84;;;11.11;59.31
6506;BME280;3286;49.858;8.768;2023-05-25T05:24:25;99936.53;;;11.19;58.49
6506;BME280;3286;49.858;8.768;2023-05-25T05:26:52;99954.47;;;11.15;58.00
6506;BME280;3286;49.858;8.768;2023-05-25T05:29:18;99946.34;;;10.97;59.87
6506;BME280;3286;49.858;8.768;2023-05-25T05:31:45;99950.72;;;11.18;60.91
6506;BME280;3286;49.858;8.768;2023-05-25T05:34:12;99949.94;;;11.56;58.94
6506;BME280;3286;49.858;8.768;2023-05-25T05:36:40;99952.75;;;11.55;57.30
6506;BME280;3286;49.858;8.768;2023-05-25T05:39:06;99952.88;;;11.93;57.70
6506;BME280;3286;49.858;8.768;2023-05-25T05:41:34;99954.56;;;11.84;56.88
6506;BME280;3286;49.858;8.768;2023-05-25T05:44:00;99943.97;;;11.64;58.60
6506;BME280;3286;49.858;8.768;2023-05-25T05:46:27;99943.28;;;11.72;56.73
6506;BME280;3286;49.858;8.768;2023-05-25T05:48:54;99946.06;;;12.10;55.72
6506;BME280;3286;49.858;8.768;2023-05-25T05:51:20;99945.88;;;12.21;56.78
6506;BME280;3286;49.858;8.768;2023-05-25T05:53:48;99955.03;;;12.46;54.50
6506;BME280;3286;49.858;8.768;2023-05-25T05:56:18;99952.75;;;12.99;53.06
6506;BME280;3286;49.858;8.768;2023-05-25T05:58:45;99956.88;;;13.30;51.94
6506;BME280;3286;49.858;8.768;2023-05-25T06:01:14;99952.19;;;13.42;51.50
6506;BME280;3286;49.858;8.768;2023-05-25T06:03:41;99948.19;;;13.38;51.35
6506;BME280;3286;49.858;8.768;2023-05-25T06:06:07;99950.13;;;13.17;52.08
6506;BME280;3286;49.858;8.768;2023-05-25T06:08:34;99953.59;;;13.46;51.73
6506;BME280;3286;49.858;8.768;2023-05-25T06:11:02;99956.88;;;13.58;51.36
6506;BME280;3286;49.858;8.768;2023-05-25T06:13:28;99952.50;;;14.11;49.63
6506;BME280;3286;49.858;8.768;2023-05-25T06:15:55;99955.13;;;13.49;50.90
6506;BME280;3286;49.858;8.768;2023-05-25T06:18:22;99966.69;;;13.29;51.24
6506;BME280;3286;49.858;8.768;2023-05-25T06:20:48;99961.28;;;13.67;49.65
6506;BME280;3286;49.858;8.768;2023-05-25T06:23:15;99963.97;;;13.94;49.73
6506;BME280;3286;49.858;8.768;2023-05-25T06:25:43;99964.28;;;13.54;50.30
6506;BME280;3286;49.858;8.768;2023-05-25T06:28:11;99966.34;;;13.79;49.05
6506;BME280;3286;49.858;8.768;2023-05-25T06:30:37;99966.44;;;13.51;49.71
6506;BME280;3286;49.858;8.768;2023-05-25T06:33:04;99957.63;;;14.31;47.71
6506;BME280;3286;49.858;8.768;2023-05-25T06:35:32;99949.00;;;14.37;48.07
6506;BME280;3286;49.858;8.768;2023-05-25T06:37:59;99950.50;;;14.92;46.48
6506;BME280;3286;49.858;8.768;2023-05-25T06:40:26;99953.47;;;14.89;47.45
6506;BME280;3286;49.858;8.768;2023-05-25T06:42:52;99957.13;;;15.31;46.11
6506;BME280;3286;49.858;8.768;2023-05-25T06:45:20;99956.78;;;15.34;45.90
6506;BME280;3286;49.858;8.768;2023-05-25T06:47:47;99958.31;;;15.62;44.81
6506;BME280;3286;49.858;8.768;2023-05-25T06:50:13;99948.19;;;14.98;45.16
6506;BME280;3286;49.858;8.768;2023-05-25T06:52:41;99958.31;;;15.62;45.00
6506;BME280;3286;49.858;8.768;2023-05-25T06:55:07;99954.31;;;15.58;44.42
6506;BME280;3286;49.858;8.768;2023-05-25T06:57:34;99957.69;;;16.10;43.90
6506;BME280;3286;49.858;8.768;2023-05-25T07:00:01;99958.72;;;15.24;44.87
6506;BME280;3286;49.858;8.768;2023-05-25T07:02:29;99959.47;;;14.65;46.70
6506;BME280;3286;49.858;8.768;2023-05-25T07:04:55;99966.88;;;13.82;48.30
6506;BME280;3286;49.858;8.768;2023-05-25T07:07:22;99967.66;;;14.45;46.27
6506;BME280;3286;49.858;8.768;2023-05-25T07:09:48;99960.13;;;15.53;44.93
6506;BME280;3286;49.858;8.768;2023-05-25T07:12:15;99957.56;;;15.10;46.47
6506;BME280;3286;49.858;8.768;2023-05-25T07:14:42;99960.00;;;15.79;44.79
6506;BME280;3286;49.858;8.768;2023-05-25T07:17:12;99958.66;;;16.25;42.73
6506;BME280;3286;49.858;8.768;2023-05-25T07:19:40;99951.09;;;16.62;42.43
6506;BME280;3286;49.858;8.768;2023-05-25T07:22:07;99956.81;;;14.91;45.67
6506;BME280;3286;49.858;8.768;2023-05-25T07:24:35;99953.34;;;15.67;43.94
6506;BME280;3286;49.858;8.768;2023-05-25T07:27:02;99951.34;;;15.69;44.88
6506;BME280;3286;49.858;8.768;2023-05-25T07:29:28;99962.31;;;15.83;43.30
6506;BME280;3286;49.858;8.768;2023-05-25T07:31:55;99963.81;;;15.69;44.64
6506;BME280;3286;49.858;8.768;2023-05-25T07:34:21;99958.66;;;14.91;46.01
6506;BME280;3286;49.858;8.768;2023-05-25T07:36:49;99959.13;;;14.33;47.26
6506;BME280;3286;49.858;8.768;2023-05-25T07:39:16;99964.75;;;14.83;46.73
6506;BME280;3286;49.858;8.768;2023-05-25T07:41:42;99968.44;;;14.90;47.03
6506;BME280;3286;49.858;8.768;2023-05-25T07:44:09;99958.81;;;14.98;45.69
6506;BME280;3286;49.858;8.768;2023-05-25T07:46:36;99967.88;;;14.78;46.51
6506;BME280;3286;49.858;8.768;2023-05-25T07:49:02;99962.84;;;15.78;44.69
6506;BME280;3286;49.858;8.768;2023-05-25T07:51:30;99961.78;;;16.62;42.54
6506;BME280;3286;49.858;8.768;2023-05-25T07:53:58;99960.38;;;16.01;44.48
6506;BME280;3286;49.858;8.768;2023-05-25T07:56:25;99967.66;;;15.66;44.72
6506;BME280;3286;49.858;8.768;2023-05-25T07:58:52;99974.13;;;15.55;46.36
6506;BME280;3286;49.858;8.768;2023-05-25T08:01:19;99969.03;;;16.12;44.55
6506;BME280;3286;49.858;8.768;2023-05-25T08:03:47;99977.50;;;15.82;46.16
6506;BME280;3286;49.858;8.768;2023-05-25T08:06:13;99980.00;;;16.17;44.29
6506;BME280;3286;49.858;8.768;2023-05-25T08:08:40;99972.66;;;16.44;43.34
6506;BME280;3286;49.858;8.768;2023-05-25T08:11:10;99966.53;;;16.18;43.68
6506;BME280;3286;49.858;8.768;2023-05-25T08:13:37;99968.84;;;16.30;44.38
6506;BME280;3286;49.858;8.768;2023-05-25T08:16:04;99965.16;;;15.81;44.53
6506;BME280;3286;49.858;8.768;2023-05-25T08:18:30;99960.81;;;16.55;43.06
6506;BME280;3286;49.858;8.768;2023-05-25T08:20:57;99950.03;;;16.79;42.97
6506;BME280;3286;49.858;8.768;2023-05-25T08:23:24;99954.72;;;17.49;40.70
6506;BME280;3286;49.858;8.768;2023-05-25T08:25:50;99945.28;;;17.38;41.25
6506;BME280;3286;49.858;8.768;2023-05-25T08:28:19;99948.44;;;17.65;41.44
6506;BME280;3286;49.858;8.768;2023-05-25T08:30:45;99953.72;;;18.35;40.08
6506;BME280;3286;49.858;8.768;2023-05-25T08:33:12;99956.25;;;17.66;41.08
6506;BME280;3286;49.858;8.768;2023-05-25T08:35:39;99959.88;;;16.79;42.80
6506;BME280;3286;49.858;8.768;2023-05-25T08:38:07;99953.28;;;18.08;40.20
6506;BME280;3286;49.858;8.768;2023-05-25T08:40:33;99961.63;;;18.28;39.20
6506;BME280;3286;49.858;8.768;2023-05-25T08:43:00;99957.97;;;18.06;39.44
6506;BME280;3286;49.858;8.768;2023-05-25T08:45:28;99956.22;;;17.75;39.42
6506;BME280;3286;49.858;8.768;2023-05-25T08:47:58;99957.28;;;17.65;39.59
6506;BME280;3286;49.858;8.768;2023-05-25T08:50:26;99949.88;;;17.91;39.59
6506;BME280;3286;49.858;8.768;2023-05-25T08:52:54;99961.97;;;18.25;38.58
6506;BME280;3286;49.858;8.768;2023-05-25T08:55:24;99952.13;;;19.37;36.41
6506;BME280;3286;49.858;8.768;2023-05-25T08:57:55;99956.13;;;18.60;37.42
6506;BME280;3286;49.858;8.768;2023-05-25T09:00:30;99951.09;;;19.17;37.08
6506;BME280;3286;49.858;8.768;2023-05-25T09:03:04;99947.09;;;19.28;36.53
6506;BME280;3286;49.858;8.768;2023-05-25T09:05:33;99945.94;;;19.95;35.56
6506;BME280;3286;49.858;8.768;2023-05-25T09:08:01;99960.72;;;19.48;35.73
6506;BME280;3286;49.858;8.768;2023-05-25T09:10:29;99954.66;;;19.61;35.49
6506;BME280;3286;49.858;8.768;2023-05-25T09:12:56;99955.41;;;19.33;36.68
6506;BME280;3286;49.858;8.768;2023-05-25T09:15:23;99954.00;;;18.85;36.48
6506;BME280;3286;49.858;8.768;2023-05-25T09:17:51;99956.75;;;19.07;37.04
6506;BME280;3286;49.858;8.768;2023-05-25T09:20:18;99960.78;;;17.89;38.75
6506;BME280;3286;49.858;8.768;2023-05-25T09:22:46;99951.22;;;18.78;38.83
6506;BME280;3286;49.858;8.768;2023-05-25T09:25:16;99947.69;;;18.93;38.22
6506;BME280;3286;49.858;8.768;2023-05-25T09:27:44;99952.91;;;19.75;35.74
6506;BME280;3286;49.858;8.768;2023-05-25T09:30:11;99947.03;;;19.21;37.44
6506;BME280;3286;49.858;8.768;2023-05-25T09:32:38;99953.38;;;19.78;36.97
6506;BME280;3286;49.858;8.768;2023-05-25T09:35:11;99956.47;;;18.72;37.71
6506;BME280;3286;49.858;8.768;2023-05-25T09:37:39;99957.56;;;18.92;37.70
6506;BME280;3286;49.858;8.768;2023-05-25T09:40:06;99951.81;;;19.25;37.20
6506;BME280;3286;49.858;8.768;2023-05-25T09:42:35;99953.13;;;19.51;37.95
6506;BME280;3286;49.858;8.768;2023-05-25T09:45:02;99951.06;;;19.32;36.95
6506;BME280;3286;49.858;8.768;2023-05-25T09:47:30;99949.63;;;19.14;36.86
6506;BME280;3286;49.858;8.768;2023-05-25T09:49:57;99951.78;;;20.06;34.66
6506;BME280;3286;49.858;8.768;2023-05-25T09:52:26;99940.53;;;21.50;32.99
6506;BME280;3286;49.858;8.768;2023-05-25T09:54:52;99949.53;;;20.38;35.53
6506;BME280;3286;49.858;8.768;2023-05-25T09:57:20;99949.69;;;20.30;35.35
6506;BME280;3286;49.858;8.768;2023-05-25T09:59:47;99953.94;;;20.81;33.63
6506;BME280;3286;49.858;8.768;2023-05-25T10:02:14;99947.59;;;20.60;34.75
6506;BME280;3286;49.858;8.768;2023-05-25T10:04:40;99963.34;;;20.35;35.72
6506;BME280;3286;49.858;8.768;2023-05-25T10:07:07;99966.66;;;20.08;34.81
6506;BME280;3286;49.858;8.768;2023-05-25T10:09:38;99963.78;;;20.10;36.09
6506;BME280;3286;49.858;8.768;2023-05-25T10:12:06;99967.44;;;18.92;37.42
6506;BME280;3286;49.858;8.768;2023-05-25T10:14:35;99967.78;;;19.34;36.59
6506;BME280;3286;49.858;8.768;2023-05-25T10:17:04;99970.88;;;19.74;35.54
6506;BME280;3286;49.858;8.768;2023-05-25T10:19:35;99964.59;;;18.63;36.03
6506;BME280;3286;49.858;8.768;2023-05-25T10:22:09;99967.34;;;19.15;35.80
6506;BME280;3286;49.858;8.768;2023-05-25T10:24:43;99968.69;;;19.84;33.86
6506;BME280;3286;49.858;8.768;2023-05-25T10:27:17;99964.53;;;20.25;34.54
6506;BME280;3286;49.858;8.768;2023-05-25T10:29:47;99953.00;;;20.67;33.65
6506;BME280;3286;49.858;8.768;2023-05-25T10:32:15;99955.19;;;20.50;32.88
6506;BME280;3286;49.858;8.768;2023-05-25T10:34:41;99957.63;;;20.16;32.58
6506;BME280;3286;49.858;8.768;2023-05-25T10:37:08;99951.34;;;21.08;32.36
6506;BME280;3286;49.858;8.768;2023-05-25T10:39:36;99943.06;;;21.98;30.77
6506;BME280;3286;49.858;8.768;2023-05-25T10:42:05;99952.63;;;20.70;32.45
6506;BME280;3286;49.858;8.768;2023-05-25T10:44:32;99942.47;;;21.14;31.10
6506;BME280;3286;49.858;8.768;2023-05-25T10:46:59;99956.63;;;20.52;31.28
6506;BME280;3286;49.858;8.768;2023-05-25T10:49:30;99952.78;;;20.26;31.65
6506;BME280;3286;49.858;8.768;2023-05-25T10:51:58;99941.88;;;20.35;30.41
6506;BME280;3286;49.858;8.768;2023-05-25T10:54:28;99935.03;;;20.67;30.86
6506;BME280;3286;49.858;8.768;2023-05-25T10:57:19;99941.88;;;20.35;31.94
6506;BME280;3286;49.858;8.768;2023-05-25T10:59:49;99941.78;;;20.56;29.93
6506;BME280;3286;49.858;8.768;2023-05-25T11:02:16;99939.78;;;19.80;31.16
6506;BME280;3286;49.858;8.768;2023-05-25T11:04:47;99935.81;;;20.26;30.56
6506;BME280;3286;49.858;8.768;2023-05-25T11:07:15;99931.78;;;21.27;29.93
6506;BME280;3286;49.858;8.768;2023-05-25T11:09:55;99934.25;;;20.38;30.42
6506;BME280;3286;49.858;8.768;2023-05-25T11:15:10;99928.00;;;20.66;31.04
6506;BME280;3286;49.858;8.768;2023-05-25T11:17:56;99929.25;;;21.06;31.29
6506;BME280;3286;49.858;8.768;2023-05-25T11:20:26;99922.09;;;21.40;29.15
6506;BME280;3286;49.858;8.768;2023-05-25T11:22:53;99922.41;;;20.96;31.20
6506;BME280;3286;49.858;8.768;2023-05-25T11:25:38;99921.66;;;21.30;30.17
6506;BME280;3286;49.858;8.768;2023-05-25T11:28:07;99922.50;;;20.39;31.93
6506;BME280;3286;49.858;8.768;2023-05-25T11:30:36;99917.91;;;20.26;32.22
6506;BME280;3286;49.858;8.768;2023-05-25T11:33:03;99918.34;;;20.37;30.92
6506;BME280;3286;49.858;8.768;2023-05-25T11:35:32;99903.84;;;21.15;31.12
6506;BME280;3286;49.858;8.768;2023-05-25T11:38:03;99903.25;;;22.34;28.73
6506;BME280;3286;49.858;8.768;2023-05-25T11:40:30;99904.00;;;22.75;28.92
6506;BME280;3286;49.858;8.768;2023-05-25T11:42:58;99907.06;;;22.85;28.03
6506;BME280;3286;49.858;8.768;2023-05-25T11:45:28;99907.25;;;22.11;28.73
6506;BME280;3286;49.858;8.768;2023-05-25T11:47:56;99893.84;;;21.91;30.23
6506;BME280;3286;49.858;8.768;2023-05-25T11:50:23;99894.63;;;22.25;29.85
6506;BME280;3286;49.858;8.768;2023-05-25T11:52:50;99898.38;;;22.04;28.06
6506;BME280;3286;49.858;8.768;2023-05-25T11:55:16;99897.91;;;22.27;29.23
6506;BME280;3286;49.858;8.768;2023-05-25T11:57:43;99892.13;;;22.31;28.16
6506;BME280;3286;49.858;8.768;2023-05-25T12:00:11;99891.94;;;22.19;27.72
6506;BME280;3286;49.858;8.768;2023-05-25T12:02:39;99900.84;;;22.12;27.79
6506;BME280;3286;49.858;8.768;2023-05-25T12:05:08;99901.91;;;21.91;29.30
6506;BME280;3286;49.858;8.768;2023-05-25T12:07:41;99893.41;;;21.74;28.24
6506;BME280;3286;49.858;8.768;2023-05-25T12:10:10;99890.25;;;21.30;29.04
6506;BME280;3286;49.858;8.768;2023-05-25T12:12:39;99886.72;;;22.31;28.62
6506;BME280;3286;49.858;8.768;2023-05-25T12:15:07;99884.28;;;22.81;28.07
6506;BME280;3286;49.858;8.768;2023-05-25T12:17:35;99881.06;;;22.59;27.55
6506;BME280;3286;49.858;8.768;2023-05-25T12:20:03;99871.25;;;22.85;27.54
6506;BME280;3286;49.858;8.768;2023-05-25T12:22:32;99870.31;;;22.59;29.05
6506;BME280;3286;49.858;8.768;2023-05-25T12:24:59;99862.88;;;23.83;28.03
6506;BME280;3286;49.858;8.768;2023-05-25T12:27:26;99861.28;;;24.94;26.28
6506;BME280;3286;49.858;8.768;2023-05-25T12:29:53;99863.72;;;24.46;26.21
6506;BME280;3286;49.858;8.768;2023-05-25T12:32:24;99855.31;;;25.03;25.17
6506;BME280;3286;49.858;8.768;2023-05-25T12:34:50;99854.28;;;24.86;25.24
6506;BME280;3286;49.858;8.768;2023-05-25T12:37:20;99859.44;;;23.50;27.99
6506;BME280;3286;49.858;8.768;2023-05-25T12:39:47;99863.16;;;23.17;28.67
6506;BME280;3286;49.858;8.768;2023-05-25T12:42:15;99859.38;;;22.93;27.35
6506;BME280;3286;49.858;8.768;2023-05-25T12:44:43;99865.09;;;22.71;28.20
6506;BME280;3286;49.858;8.768;2023-05-25T12:47:13;99850.00;;;24.29;25.72
6506;BME280;3286;49.858;8.768;2023-05-25T12:49:40;99842.94;;;24.47;26.20
6506;BME280;3286;49.858;8.768;2023-05-25T12:52:09;99843.38;;;25.23;25.50
6506;BME280;3286;49.858;8.768;2023-05-25T12:54:39;99853.03;;;22.74;28.70
6506;BME280;3286;49.858;8.768;2023-05-25T12:57:09;99852.78;;;23.27;27.59
6506;BME280;3286;49.858;8.768;2023-05-25T12:59:36;99857.28;;;23.34;28.07
6506;BME280;3286;49.858;8.768;2023-05-25T13:02:04;99847.38;;;23.21;28.04
6506;BME280;3286;49.858;8.768;2023-05-25T13:04:31;99837.59;;;24.77;26.01
6506;BME280;3286;49.858;8.768;2023-05-25T13:06:57;99841.75;;;23.80;26.02
6506;BME280;3286;49.858;8.768;2023-05-25T13:09:25;99835.84;;;24.34;26.36
6506;BME280;3286;49.858;8.768;2023-05-25T13:11:53;99852.09;;;23.32;27.97
6506;BME280;3286;49.858;8.768;2023-05-25T13:14:21;99842.25;;;23.44;27.28
6506;BME280;3286;49.858;8.768;2023-05-25T13:16:48;99841.69;;;23.86;26.70
6506;BME280;3286;49.858;8.768;2023-05-25T13:19:15;99832.00;;;24.23;26.15
6506;BME280;3286;49.858;8.768;2023-05-25T13:21:41;99842.56;;;24.06;27.41
6506;BME280;3286;49.858;8.768;2023-05-25T13:24:08;99834.84;;;24.96;26.26
6506;BME280;3286;49.858;8.768;2023-05-25T13:26:35;99834.19;;;24.82;26.37
6506;BME280;3286;49.858;8.768;2023-05-25T13:29:03;99821.09;;;25.64;25.30